createdAt,value
2022-09-06T00:01:12.291Z,3.33
2022-09-06T00:03:39.410Z,2.90
2022-09-06T00:06:09.201Z,3.08
2022-09-06T00:08:36.237Z,2.70
2022-09-06T00:11:02.901Z,2.90
2022-09-06T00:13:29.877Z,2.50
2022-09-06T00:15:56.613Z,2.92
2022-09-06T00:18:23.391Z,2.88
2022-09-06T00:20:50.038Z,3.13
2022-09-06T00:23:21.764Z,3.35
2022-09-06T00:25:48.327Z,3.30
2022-09-06T00:28:16.129Z,2.90
2022-09-06T00:30:42.770Z,3.33
2022-09-06T00:33:09.373Z,3.47
2022-09-06T00:35:35.955Z,3.25
2022-09-06T00:38:02.710Z,3.00
2022-09-06T00:40:35.835Z,3.17
2022-09-06T00:43:02.450Z,3.42
2022-09-06T00:45:31.189Z,2.90
2022-09-06T00:47:59.726Z,2.88
2022-09-06T00:50:27.941Z,3.13
2022-09-06T00:52:54.915Z,2.88
2022-09-06T00:55:21.989Z,3.10
2022-09-06T00:57:51.484Z,3.03
2022-09-06T01:00:22.162Z,2.92
2022-09-06T01:02:49.710Z,3.60
2022-09-06T01:05:18.234Z,3.10
2022-09-06T01:08:17.918Z,2.92
2022-09-06T01:11:10.379Z,3.15
2022-09-06T01:13:42.661Z,3.17
2022-09-06T01:16:26.019Z,3.20
2022-09-06T01:19:07.682Z,3.00
2022-09-06T01:24:40.128Z,2.90
2022-09-06T01:27:12.415Z,3.30
2022-09-06T01:29:54.282Z,3.28
2022-09-06T01:32:32.991Z,3.03
2022-09-06T01:35:38.651Z,3.50
2022-09-06T01:38:11.498Z,3.17
2022-09-06T01:40:38.081Z,3.42
2022-09-06T01:43:10.897Z,3.20
2022-09-06T01:45:51.575Z,3.22
2022-09-06T01:48:27.170Z,2.90
2022-09-06T01:51:03.079Z,3.08
2022-09-06T01:54:00.555Z,3.55
2022-09-06T01:57:03.563Z,3.42
2022-09-06T01:59:45.144Z,3.47
2022-09-06T02:02:26.336Z,3.58
2022-09-06T02:05:02.262Z,2.83
2022-09-06T02:07:31.425Z,3.60
2022-09-06T02:10:13.507Z,3.50
2022-09-06T02:12:43.564Z,3.72
2022-09-06T02:15:23.703Z,3.50
2022-09-06T02:18:28.854Z,3.47
2022-09-06T02:20:58.673Z,4.32
2022-09-06T02:23:30.224Z,4.80
2022-09-06T02:28:31.045Z,3.67
2022-09-06T02:31:12.236Z,3.75
2022-09-06T02:33:40.655Z,3.50
2022-09-06T02:36:09.229Z,3.55
2022-09-06T02:38:40.491Z,4.25
2022-09-06T02:41:09.633Z,3.42
2022-09-06T02:43:36.459Z,4.20
2022-09-06T02:46:04.101Z,3.97
2022-09-06T02:48:30.776Z,4.40
2022-09-06T02:51:05.477Z,3.53
2022-09-06T02:53:32.600Z,3.90
2022-09-06T02:55:59.888Z,3.70
2022-09-06T02:58:27.630Z,4.50
2022-09-06T03:00:54.368Z,4.30
2022-09-06T03:03:21.984Z,3.92
2022-09-06T03:05:50.900Z,4.38
2022-09-06T03:08:19.012Z,4.40
2022-09-06T03:10:49.940Z,4.90
2022-09-06T03:13:19.794Z,4.35
2022-09-06T03:15:54.159Z,4.95
2022-09-06T03:18:20.856Z,4.63
2022-09-06T03:20:49.754Z,4.47
2022-09-06T03:23:17.558Z,4.70
2022-09-06T03:25:44.689Z,3.92
2022-09-06T03:28:11.414Z,3.75
2022-09-06T03:30:38.046Z,3.75
2022-09-06T03:33:04.673Z,3.92
2022-09-06T03:35:31.539Z,3.88
2022-09-06T03:37:58.132Z,3.53
2022-09-06T03:40:24.695Z,3.30
2022-09-06T03:42:51.677Z,3.33
2022-09-06T03:45:19.307Z,4.00
2022-09-06T03:47:45.918Z,4.57
2022-09-06T03:50:12.752Z,4.70
2022-09-06T03:52:39.469Z,4.25
2022-09-06T03:55:06.938Z,3.80
2022-09-06T03:57:34.711Z,3.35
2022-09-06T04:00:01.356Z,3.92
2022-09-06T04:02:27.983Z,4.25
2022-09-06T04:04:55.630Z,3.97
2022-09-06T04:07:23.094Z,4.10
2022-09-06T04:09:50.751Z,3.63
2022-09-06T04:12:17.311Z,4.30
2022-09-06T04:14:44.043Z,4.35
2022-09-06T04:17:10.752Z,3.70
2022-09-06T04:19:37.374Z,4.38
2022-09-06T04:22:03.966Z,4.85
2022-09-06T04:24:30.542Z,5.10
2022-09-06T04:26:57.170Z,5.00
2022-09-06T04:29:24.529Z,4.25
2022-09-06T04:31:51.150Z,4.25
2022-09-06T04:34:17.809Z,4.53
2022-09-06T04:36:48.195Z,5.00
2022-09-06T04:39:15.244Z,3.80
2022-09-06T04:41:42.680Z,4.22
2022-09-06T04:44:09.457Z,3.95
2022-09-06T04:46:36.105Z,3.78
2022-09-06T04:49:03.211Z,4.28
2022-09-06T04:51:29.931Z,4.25
2022-09-06T04:53:56.543Z,4.22
2022-09-06T04:56:25.450Z,3.70
2022-09-06T04:58:54.199Z,3.58
2022-09-06T05:01:21.483Z,4.68
2022-09-06T05:03:48.204Z,5.05
2022-09-06T05:06:24.996Z,4.82
2022-09-06T05:08:52.660Z,5.28
2022-09-06T05:11:19.743Z,3.97
2022-09-06T05:13:47.486Z,4.53
2022-09-06T05:16:14.398Z,4.68
2022-09-06T05:18:41.058Z,5.18
2022-09-06T05:21:08.030Z,4.78
2022-09-06T05:23:34.710Z,4.82
2022-09-06T05:26:01.522Z,4.05
2022-09-06T05:28:29.261Z,5.00
2022-09-06T05:31:10.761Z,5.20
2022-09-06T05:33:37.882Z,5.10
2022-09-06T05:36:06.365Z,5.22
2022-09-06T05:38:33.563Z,5.20
2022-09-06T05:41:00.434Z,5.85
2022-09-06T05:43:27.169Z,6.75
2022-09-06T05:45:53.863Z,6.03
2022-09-06T05:48:20.570Z,5.95
2022-09-06T05:50:47.179Z,5.30
2022-09-06T05:53:13.880Z,6.22
2022-09-06T05:55:42.984Z,6.03
2022-09-06T05:58:09.917Z,5.55
2022-09-06T06:00:37.647Z,6.47
2022-09-06T06:03:04.307Z,6.53
2022-09-06T06:05:30.918Z,6.72
2022-09-06T06:07:59.684Z,7.05
2022-09-06T06:10:27.285Z,6.20
2022-09-06T06:12:54.035Z,6.90
2022-09-06T06:15:20.612Z,6.30
2022-09-06T06:17:47.233Z,7.07
2022-09-06T06:20:13.904Z,6.32
2022-09-06T06:22:40.511Z,6.03
2022-09-06T06:25:07.427Z,6.13
2022-09-06T06:27:35.440Z,6.85
2022-09-06T06:30:02.013Z,6.68
2022-09-06T06:32:28.669Z,5.82
2022-09-06T06:34:55.259Z,6.50
2022-09-06T06:37:21.837Z,6.20
2022-09-06T06:39:48.433Z,6.28
2022-09-06T06:42:16.100Z,6.80
2022-09-06T06:44:42.845Z,6.18
2022-09-06T06:47:09.425Z,6.32
2022-09-06T06:49:36.009Z,5.93
2022-09-06T06:52:02.803Z,5.70
2022-09-06T06:54:29.917Z,5.45
2022-09-06T06:56:56.687Z,5.57
2022-09-06T06:59:23.359Z,5.88
2022-09-06T07:01:50.783Z,5.63
2022-09-06T07:04:17.622Z,4.97
2022-09-06T07:12:28.644Z,6.15
2022-09-06T07:14:55.675Z,5.55
2022-09-06T07:17:22.277Z,5.90
2022-09-06T07:22:35.441Z,6.65
2022-09-06T07:25:02.786Z,6.22
2022-09-06T07:30:12.077Z,5.05
2022-09-06T07:32:38.655Z,5.63
2022-09-06T07:35:05.710Z,5.95
2022-09-06T07:37:32.301Z,4.72
2022-09-06T07:39:58.894Z,5.78
2022-09-06T07:42:25.502Z,4.68
2022-09-06T07:44:52.071Z,5.03
2022-09-06T07:53:10.843Z,4.80
2022-09-06T07:55:39.028Z,5.20
2022-09-06T07:58:05.677Z,4.75
2022-09-06T08:00:32.300Z,4.55
2022-09-06T08:02:59.162Z,4.82
2022-09-06T08:10:58.881Z,4.25
2022-09-06T08:13:25.472Z,4.07
2022-09-06T08:16:03.543Z,4.55
2022-09-06T08:18:31.287Z,4.55
2022-09-06T08:21:11.528Z,5.10
2022-09-06T08:23:45.348Z,5.00
2022-09-06T08:26:12.150Z,4.22
2022-09-06T08:28:38.888Z,4.65
2022-09-06T08:31:11.183Z,4.50
2022-09-06T08:33:39.016Z,5.00
2022-09-06T08:36:06.786Z,4.50
2022-09-06T08:38:33.986Z,4.45
2022-09-06T08:41:46.264Z,5.20
2022-09-06T08:47:38.536Z,4.53
2022-09-06T08:50:09.401Z,4.60
2022-09-06T08:53:16.603Z,4.53
2022-09-06T08:55:59.646Z,4.80
2022-09-06T08:58:58.567Z,4.40
2022-09-06T09:01:37.931Z,4.60
2022-09-06T09:04:08.166Z,4.50
2022-09-06T09:06:35.497Z,3.92
2022-09-06T09:09:13.418Z,4.53
2022-09-06T09:11:44.739Z,4.40
2022-09-06T09:16:44.439Z,4.43
2022-09-06T09:19:11.181Z,3.95
2022-09-06T09:21:40.232Z,4.20
2022-09-06T09:24:09.676Z,4.38
2022-09-06T09:26:42.646Z,4.60
2022-09-06T09:29:12.605Z,4.20
2022-09-06T09:31:41.923Z,3.95
2022-09-06T09:34:13.824Z,3.58
2022-09-06T09:36:41.042Z,3.88
2022-09-06T09:39:12.035Z,4.05
2022-09-06T09:41:43.687Z,3.72
2022-09-06T09:44:17.670Z,4.10
2022-09-06T09:46:44.692Z,4.18
2022-09-06T09:49:14.065Z,3.88
2022-09-06T09:51:43.202Z,3.60
2022-09-06T09:54:12.880Z,3.67
2022-09-06T09:56:52.933Z,3.42
2022-09-06T09:59:27.595Z,3.67
2022-09-06T10:01:58.141Z,3.83
2022-09-06T10:04:47.476Z,3.60
2022-09-06T10:07:23.311Z,3.55
2022-09-06T10:09:59.234Z,3.80
2022-09-06T10:12:40.944Z,4.00
2022-09-06T10:15:09.953Z,3.67
2022-09-06T10:17:47.650Z,3.75
2022-09-06T10:20:14.897Z,3.90
2022-09-06T10:23:06.600Z,3.40
2022-09-06T10:25:49.190Z,3.65
2022-09-06T10:28:36.541Z,4.32
2022-09-06T10:31:12.977Z,4.10
2022-09-06T10:34:04.574Z,3.90
2022-09-06T10:36:37.404Z,3.90
2022-09-06T10:39:25.635Z,3.72
2022-09-06T10:42:07.192Z,4.32
2022-09-06T10:44:54.462Z,4.13
2022-09-06T10:47:27.553Z,4.10
2022-09-06T10:49:57.911Z,3.55
2022-09-06T10:52:28.904Z,3.55
2022-09-06T10:55:02.226Z,4.68
2022-09-06T11:00:47.421Z,4.15
2022-09-06T11:06:12.486Z,3.38
2022-09-06T11:08:53.578Z,3.65
2022-09-06T11:12:02.593Z,3.80
2022-09-06T11:14:30.235Z,3.60
2022-09-06T11:17:05.003Z,3.63
2022-09-06T11:19:49.019Z,3.38
2022-09-06T11:23:00.600Z,3.60
2022-09-06T11:25:36.354Z,3.10
2022-09-06T11:28:09.211Z,2.90
2022-09-06T11:30:37.481Z,3.33
2022-09-06T11:33:16.609Z,3.15
2022-09-06T11:35:43.211Z,3.35
2022-09-06T11:38:16.757Z,2.67
2022-09-06T11:40:47.915Z,3.10
2022-09-06T11:45:57.339Z,2.83
2022-09-06T11:48:23.942Z,2.90
2022-09-06T11:50:59.461Z,2.58
2022-09-06T11:53:32.094Z,2.63
2022-09-06T11:56:01.467Z,2.25
2022-09-06T11:58:40.047Z,3.08
2022-09-06T12:01:12.783Z,3.00
2022-09-06T12:04:05.382Z,3.25
2022-09-06T12:07:03.739Z,3.35
2022-09-06T12:09:37.773Z,3.63
2022-09-06T12:12:04.828Z,3.20
2022-09-06T12:14:36.046Z,3.20
2022-09-06T12:17:04.898Z,3.50
2022-09-06T12:19:48.272Z,2.97
2022-09-06T12:22:27.069Z,3.30
2022-09-06T12:25:00.125Z,3.05
2022-09-06T12:27:30.562Z,3.15
2022-09-06T12:30:07.555Z,3.10
2022-09-06T12:32:41.911Z,3.50
2022-09-06T12:38:06.877Z,3.10
2022-09-06T12:40:45.841Z,3.30
2022-09-06T12:43:15.438Z,3.50
2022-09-06T12:45:48.059Z,3.22
2022-09-06T12:48:28.401Z,3.50
2022-09-06T12:51:04.245Z,3.22
2022-09-06T12:53:31.766Z,3.25
2022-09-06T12:56:08.013Z,4.05
2022-09-06T12:58:35.313Z,3.28
2022-09-06T13:01:14.727Z,3.22
2022-09-06T13:03:50.413Z,3.58
2022-09-06T13:06:26.843Z,3.35
2022-09-06T13:08:57.225Z,3.50
2022-09-06T13:11:39.803Z,3.30
2022-09-06T13:14:17.548Z,3.70
2022-09-06T13:16:47.479Z,3.80
2022-09-06T13:19:40.599Z,3.20
2022-09-06T13:22:10.929Z,3.38
2022-09-06T13:24:46.380Z,3.60
2022-09-06T13:27:37.139Z,3.15
2022-09-06T13:30:10.878Z,3.25
2022-09-06T13:32:46.620Z,2.97
2022-09-06T13:35:24.003Z,3.47
2022-09-06T13:37:50.586Z,3.40
2022-09-06T13:40:53.884Z,3.33
2022-09-06T13:43:25.177Z,2.88
2022-09-06T13:46:05.056Z,3.10
2022-09-06T13:48:31.719Z,3.17
2022-09-06T13:50:58.696Z,3.25
2022-09-06T13:53:25.310Z,2.80
2022-09-06T13:55:52.853Z,2.70
2022-09-06T13:58:19.517Z,2.63
2022-09-06T14:00:46.935Z,2.50
2022-09-06T14:03:26.917Z,2.30
2022-09-06T14:05:53.701Z,2.40
2022-09-06T14:08:21.223Z,2.55
2022-09-06T14:10:48.456Z,2.75
2022-09-06T14:13:18.892Z,2.67
2022-09-06T14:15:49.409Z,2.28
2022-09-06T14:18:17.220Z,2.58
2022-09-06T14:20:52.457Z,3.17
2022-09-06T14:23:19.321Z,2.53
2022-09-06T14:25:45.941Z,2.40
2022-09-06T14:28:12.755Z,2.58
2022-09-06T14:30:39.395Z,2.53
2022-09-06T14:33:06.098Z,2.63
2022-09-06T14:35:32.954Z,2.80
2022-09-06T14:38:00.609Z,2.70
2022-09-06T14:40:27.565Z,2.53
2022-09-06T14:42:56.660Z,2.67
2022-09-06T14:45:23.247Z,2.45
2022-09-06T14:47:49.886Z,2.70
2022-09-06T14:50:16.744Z,2.30
2022-09-06T14:52:43.373Z,2.35
2022-09-06T14:55:10.985Z,2.58
2022-09-06T14:57:37.561Z,2.30
2022-09-06T15:00:08.661Z,2.30
2022-09-06T15:02:35.633Z,2.60
2022-09-06T15:05:02.825Z,2.60
2022-09-06T15:07:29.649Z,2.92
2022-09-06T15:09:56.258Z,2.35
2022-09-06T15:12:23.019Z,2.33
2022-09-06T15:14:49.686Z,2.47
2022-09-06T15:17:16.498Z,2.42
2022-09-06T15:19:43.189Z,2.22
2022-09-06T15:22:09.762Z,2.15
2022-09-06T15:24:36.847Z,2.30
2022-09-06T15:27:03.864Z,2.20
2022-09-06T15:29:32.537Z,2.67
2022-09-06T15:32:08.151Z,2.00
2022-09-06T15:34:35.540Z,2.40
2022-09-06T15:37:02.099Z,2.20
2022-09-06T15:39:28.807Z,2.20
2022-09-06T15:41:57.125Z,2.03
2022-09-06T15:44:23.804Z,2.15
2022-09-06T15:46:57.261Z,2.13
2022-09-06T15:49:32.138Z,2.25
2022-09-06T15:52:02.589Z,2.20
2022-09-06T15:54:49.495Z,2.63
2022-09-06T15:57:17.413Z,2.55
2022-09-06T15:59:44.366Z,2.50
2022-09-06T16:02:11.816Z,2.00
2022-09-06T16:04:38.982Z,2.10
2022-09-06T16:07:05.913Z,1.98
2022-09-06T16:09:32.512Z,2.20
2022-09-06T16:11:59.128Z,2.40
2022-09-06T16:14:25.954Z,2.47
2022-09-06T16:16:54.878Z,2.20
2022-09-06T16:19:21.641Z,2.45
2022-09-06T16:21:48.222Z,2.40
2022-09-06T16:24:15.393Z,2.40
2022-09-06T16:26:44.378Z,2.20
2022-09-06T16:29:12.909Z,2.20
2022-09-06T16:31:40.875Z,2.30
2022-09-06T16:34:14.129Z,2.40
2022-09-06T16:36:41.224Z,2.03
2022-09-06T16:39:08.591Z,2.25
2022-09-06T16:41:43.901Z,2.05
2022-09-06T16:44:17.456Z,1.90
2022-09-06T16:46:46.339Z,2.20
2022-09-06T16:49:13.258Z,1.90
2022-09-06T16:51:47.682Z,1.65
2022-09-06T16:54:15.615Z,1.98
2022-09-06T16:56:42.861Z,1.98
2022-09-06T16:59:10.595Z,1.95
2022-09-06T17:01:41.382Z,2.22
2022-09-06T17:06:38.364Z,2.15
2022-09-06T17:09:05.331Z,1.90
2022-09-06T17:11:31.903Z,2.00
2022-09-06T17:13:58.495Z,2.30
2022-09-06T17:16:44.875Z,2.55
2022-09-06T17:19:12.035Z,1.90
2022-09-06T17:21:40.089Z,2.00
2022-09-06T17:24:08.430Z,1.90
2022-09-06T17:26:37.538Z,1.92
2022-09-06T17:29:04.734Z,2.10
2022-09-06T17:31:31.449Z,2.10
2022-09-06T17:33:59.687Z,2.00
2022-09-06T17:36:30.566Z,1.80
2022-09-06T17:39:01.869Z,2.20
2022-09-06T17:41:45.752Z,1.92
2022-09-06T17:44:14.811Z,2.10
2022-09-06T17:46:56.991Z,1.98
2022-09-06T17:49:34.478Z,1.70
2022-09-06T17:52:01.057Z,2.05
2022-09-06T17:54:27.980Z,1.75
2022-09-06T17:56:57.558Z,2.50
2022-09-06T17:59:24.148Z,2.10
2022-09-06T18:01:52.480Z,2.10
2022-09-06T18:04:19.541Z,2.50
2022-09-06T18:06:47.542Z,2.80
2022-09-06T18:09:16.890Z,3.42
2022-09-06T18:11:45.991Z,6.53
2022-09-06T18:14:16.575Z,5.68
2022-09-06T18:16:49.028Z,6.53
2022-09-06T18:19:16.642Z,4.35
2022-09-06T18:21:43.497Z,3.58
2022-09-06T18:24:14.041Z,3.63
2022-09-06T18:26:41.648Z,4.97
2022-09-06T18:29:12.034Z,8.05
2022-09-06T18:31:39.902Z,4.00
2022-09-06T18:34:07.890Z,4.78
2022-09-06T18:36:35.108Z,3.30
2022-09-06T18:39:04.752Z,3.13
2022-09-06T18:42:04.687Z,3.70
2022-09-06T18:44:33.291Z,9.80
2022-09-06T18:47:06.046Z,7.35
2022-09-06T18:49:33.850Z,3.95
2022-09-06T18:52:02.459Z,9.73
2022-09-06T18:54:29.270Z,4.28
2022-09-06T18:56:56.436Z,15.43
2022-09-06T18:59:23.494Z,8.60
2022-09-06T19:01:50.275Z,19.40
2022-09-06T19:04:17.204Z,5.45
2022-09-06T19:06:45.073Z,4.65
2022-09-06T19:09:15.079Z,17.77
2022-09-06T19:11:43.487Z,3.35
2022-09-06T19:14:10.314Z,7.65
2022-09-06T19:16:37.001Z,6.07
2022-09-06T19:19:07.029Z,4.00
2022-09-06T19:21:39.154Z,5.30
2022-09-06T19:24:09.277Z,11.65
2022-09-06T19:26:38.249Z,10.98
2022-09-06T19:29:09.194Z,9.32
2022-09-06T19:31:38.363Z,13.75
2022-09-06T19:34:07.461Z,6.18
2022-09-06T19:36:34.162Z,6.38
2022-09-06T19:39:06.722Z,10.38
2022-09-06T19:41:37.981Z,7.38
2022-09-06T19:44:05.977Z,3.92
2022-09-06T19:46:33.135Z,4.05
2022-09-06T19:49:00.926Z,3.60
2022-09-06T19:51:28.628Z,3.40
2022-09-06T19:54:02.745Z,3.05
2022-09-06T19:56:33.886Z,2.70
2022-09-06T19:59:03.374Z,5.38
2022-09-06T20:01:32.972Z,4.38
2022-09-06T20:04:02.673Z,3.47
2022-09-06T20:06:30.274Z,2.88
2022-09-06T20:08:58.146Z,3.70
2022-09-06T20:11:27.541Z,3.60
2022-09-06T20:13:54.507Z,3.38
2022-09-06T20:16:24.765Z,3.10
2022-09-06T20:18:52.443Z,3.22
2022-09-06T20:21:21.142Z,3.00
2022-09-06T20:23:55.366Z,3.10
2022-09-06T20:26:23.911Z,3.00
2022-09-06T20:29:01.548Z,2.70
2022-09-06T20:31:29.989Z,3.00
2022-09-06T20:33:59.156Z,3.17
2022-09-06T20:36:26.057Z,3.08
2022-09-06T20:38:52.675Z,3.55
2022-09-06T20:41:21.506Z,3.10
2022-09-06T20:43:53.215Z,3.15
2022-09-06T20:46:22.037Z,3.58
2022-09-06T20:48:51.911Z,3.10
2022-09-06T20:51:20.764Z,3.15
2022-09-06T20:53:51.751Z,3.67
2022-09-06T20:56:20.937Z,3.45
2022-09-06T20:58:56.289Z,3.60
2022-09-06T21:01:25.110Z,4.20
2022-09-06T21:03:54.556Z,3.47
2022-09-06T21:06:23.109Z,3.38
2022-09-06T21:08:53.714Z,3.33
2022-09-06T21:11:20.578Z,3.40
2022-09-06T21:13:51.621Z,3.30
2022-09-06T21:16:24.411Z,3.72
2022-09-06T21:18:56.941Z,3.05
2022-09-06T21:21:24.846Z,3.65
2022-09-06T21:23:51.844Z,3.88
2022-09-06T21:26:29.316Z,4.00
2022-09-06T21:28:56.102Z,2.95
2022-09-06T21:31:25.269Z,3.42
2022-09-06T21:33:54.418Z,3.40
2022-09-06T21:36:32.269Z,3.17
2022-09-06T21:39:09.904Z,3.25
2022-09-06T21:41:43.464Z,3.00
2022-09-06T21:44:10.610Z,3.90
2022-09-06T21:46:38.833Z,3.42
2022-09-06T21:49:08.942Z,3.80
2022-09-06T21:51:36.079Z,3.80
2022-09-06T21:54:04.477Z,3.75
2022-09-06T21:56:34.052Z,3.80
2022-09-06T21:59:00.834Z,3.60
2022-09-06T22:01:29.769Z,3.92
2022-09-06T22:03:56.574Z,4.45
2022-09-06T22:06:25.795Z,3.80
2022-09-06T22:08:52.908Z,3.75
2022-09-06T22:11:24.873Z,3.47
2022-09-06T22:13:51.554Z,3.53
2022-09-06T22:16:20.839Z,3.85
2022-09-06T22:18:49.099Z,3.10
2022-09-06T22:21:21.259Z,3.08
2022-09-06T22:23:51.718Z,3.08
2022-09-06T22:26:19.141Z,3.60
2022-09-06T22:28:46.220Z,3.08
2022-09-06T22:31:13.131Z,3.20
2022-09-06T22:33:39.903Z,3.67
2022-09-06T22:36:07.425Z,3.50
2022-09-06T22:38:38.264Z,3.25
2022-09-06T22:41:05.352Z,3.80
2022-09-06T22:43:32.262Z,4.00
2022-09-06T22:46:08.559Z,3.47
2022-09-06T22:48:35.798Z,3.75
2022-09-06T22:51:03.748Z,3.83
2022-09-06T22:53:31.957Z,3.42
2022-09-06T22:55:59.069Z,3.40
2022-09-06T22:58:29.592Z,3.20
2022-09-06T23:00:57.206Z,3.80
2022-09-06T23:03:23.970Z,3.90
2022-09-06T23:05:50.611Z,3.58
2022-09-06T23:08:18.184Z,3.33
2022-09-06T23:10:44.780Z,3.80
2022-09-06T23:13:11.765Z,3.17
2022-09-06T23:15:40.876Z,4.28
2022-09-06T23:18:08.493Z,3.55
2022-09-06T23:20:37.084Z,3.80
2022-09-06T23:23:04.639Z,3.78
2022-09-06T23:25:31.388Z,4.07
2022-09-06T23:28:00.249Z,4.45
2022-09-06T23:30:27.843Z,3.63
2022-09-06T23:32:56.460Z,3.85
2022-09-06T23:35:25.143Z,3.40
2022-09-06T23:37:52.284Z,3.03
2022-09-06T23:40:19.646Z,3.60
2022-09-06T23:42:47.219Z,3.75
2022-09-06T23:45:13.992Z,4.00
2022-09-06T23:47:41.243Z,4.05
2022-09-06T23:50:08.103Z,3.95
2022-09-06T23:52:34.708Z,4.10
2022-09-06T23:55:01.371Z,4.07
2022-09-06T23:57:27.957Z,4.22
2022-09-06T23:59:54.631Z,4.22
